Waswanipi, Canada
Current Conditions -  °F | °C
As of 12:00 AM on Sunday 26 Oct 2014 (Local Time) from CYNM Reporting Station
Overcast Overcast  
Wind Chill: 33°   Ceiling: 1000
Heat Index: 39°   Visibility: 9mi
Dew Point: 39°   Wind: 9mph
Humidity: 100%   Direction: 280°W
Pressure: 29.33"   Gusts: NA
Location:  49.65°N, 76.48°W
Report Text: CYNM 260400Z AUTO 28008KT 240V310 9SM OVC010 04/04 A2933 RMK ICG MISG SLP941
Loading
Personal Weather Stations






























Interactive Weather Map
Tropical Storm Tracking
New forecast layout! Learn more

10-Day Weather Forecast

Advertisements
Track Severe Weather on mobile